Time;durP1;ratioP1;P1;durP2;ratioP2;P2;SDS_P1;SDS_P2;PMS_P1;PMS_P2;Temp;Humidity;BMP_temperature;BMP_pressure;BME280_temperature;BME280_humidity;BME280_pressure;Samples;Min_cycle;Max_cycle;Signal;HPM_P1;HPM_P2
2022/12/01 00:03:25;;;;;;;32.33;18.20;;;8.50;98.20;;;;;;10373736;28;20204;-92
2022/12/01 00:08:28;;;;;;;25.43;14.33;;;8.40;97.00;;;;;;10374373;28;20247;-92
2022/12/01 00:13:31;;;;;;;25.43;15.67;;;8.30;99.90;;;;;;10366702;28;20201;-92
2022/12/01 00:18:33;;;;;;;27.37;17.70;;;8.80;98.40;;;;;;10344241;28;20238;-92
2022/12/01 00:23:36;;;;;;;26.97;15.53;;;8.30;94.90;;;;;;10374482;28;20591;-93
2022/12/01 00:28:39;;;;;;;25.77;16.57;;;8.30;96.30;;;;;;10374695;28;20192;-93
2022/12/01 00:33:42;;;;;;;27.40;17.37;;;8.40;96.50;;;;;;10356043;28;20208;-91
2022/12/01 00:38:45;;;;;;;22.50;13.50;;;8.80;95.30;;;;;;10369947;28;20594;-91
2022/12/01 00:43:48;;;;;;;24.20;12.63;;;8.70;97.20;;;;;;10340908;28;20224;-91
2022/12/01 00:48:50;;;;;;;25.57;15.80;;;9.50;96.90;;;;;;10358497;28;20262;-92
2022/12/01 00:53:52;;;;;;;22.43;13.90;;;9.30;94.30;;;;;;10379229;28;20228;-91
2022/12/01 00:58:55;;;;;;;24.10;15.73;;;9.10;96.20;;;;;;10373323;28;20216;-94
2022/12/01 01:03:57;;;;;;;18.97;12.87;;;9.10;96.20;;;;;;10363575;28;20231;-93
2022/12/01 01:09:00;;;;;;;23.13;14.93;;;8.90;96.90;;;;;;10363492;28;20246;-93
2022/12/01 01:14:03;;;;;;;27.20;16.60;;;8.40;93.10;;;;;;10361117;28;20208;-91
2022/12/01 01:19:05;;;;;;;27.27;16.43;;;8.00;95.40;;;;;;10373403;28;20221;-92
2022/12/01 01:24:08;;;;;;;30.03;19.73;;;7.80;95.00;;;;;;10350362;28;20259;-91
2022/12/01 01:29:11;;;;;;;22.53;14.07;;;7.50;93.70;;;;;;10338368;28;20268;-91
2022/12/01 01:34:14;;;;;;;28.17;17.77;;;7.40;99.90;;;;;;10338330;28;20232;-92
2022/12/01 01:39:17;;;;;;;23.60;15.47;;;7.40;96.00;;;;;;10335209;28;20240;-91
2022/12/01 01:44:45;;;;;;;23.80;13.90;;;7.10;97.60;;;;;;10367330;28;20208;-95
2022/12/01 01:49:48;;;;;;;28.77;16.23;;;6.90;99.90;;;;;;10364971;28;20208;-92
2022/12/01 01:54:53;;;;;;;19.57;12.87;;;7.00;99.90;;;;;;10338360;28;20228;-92
2022/12/01 02:00:13;;;;;;;22.80;14.03;;;7.30;99.90;;;;;;10317368;28;20906;-91
2022/12/01 02:05:24;;;;;;;26.70;18.10;;;7.40;99.90;;;;;;10366781;28;20247;-92
2022/12/01 02:11:03;;;;;;;23.90;15.37;;;7.50;96.30;;;;;;10356710;28;20727;-91
2022/12/01 02:16:14;;;;;;;26.50;17.30;;;7.30;99.40;;;;;;10374073;28;20258;-92
2022/12/01 02:21:35;;;;;;;26.53;16.03;;;7.10;96.30;;;;;;10346000;28;20201;-91
2022/12/01 02:26:56;;;;;;;20.47;12.50;;;7.30;99.90;;;;;;10336577;28;20197;-92
2022/12/01 02:32:14;;;;;;;29.57;19.97;;;6.70;99.90;;;;;;10336720;28;20739;-91
2022/12/01 02:37:25;;;;;;;26.40;16.00;;;6.50;95.80;;;;;;10356203;28;20314;-92
2022/12/01 02:43:02;;;;;;;21.97;15.07;;;6.60;99.90;;;;;;10356067;28;20231;-94
2022/12/01 02:48:11;;;;;;;37.17;21.57;;;6.60;99.90;;;;;;10331801;28;20209;-93
2022/12/01 02:53:17;;;;;;;25.80;14.63;;;5.50;98.90;;;;;;10322160;28;20263;-91
2022/12/01 02:58:20;;;;;;;30.97;20.63;;;6.10;99.90;;;;;;10346706;28;20340;-91
2022/12/01 03:03:57;;;;;;;29.13;17.80;;;6.50;98.80;;;;;;10354586;28;20196;-92
2022/12/01 03:09:29;;;;;;;27.57;16.07;;;6.20;99.90;;;;;;10357088;28;20258;-92
2022/12/01 03:15:12;;;;;;;25.30;15.73;;;6.40;99.90;;;;;;10371773;28;20232;-92
2022/12/01 03:20:26;;;;;;;28.60;17.40;;;6.80;99.90;;;;;;10309891;28;20262;-92
2022/12/01 03:25:30;;;;;;;21.13;13.90;;;6.80;99.90;;;;;;10366451;28;20201;-90
2022/12/01 03:30:35;;;;;;;26.57;14.57;;;7.00;99.90;;;;;;10357197;28;20204;-93
2022/12/01 03:35:49;;;;;;;28.13;17.13;;;7.20;99.90;;;;;;10370973;28;20204;-91
2022/12/01 03:40:58;;;;;;;23.23;13.30;;;7.50;98.40;;;;;;10326869;28;20759;-92
2022/12/01 03:46:43;;;;;;;17.53;10.80;;;7.70;99.90;;;;;;10369269;28;20677;-91
2022/12/01 03:51:54;;;;;;;20.90;14.13;;;8.10;99.90;;;;;;10354153;28;20204;-92
2022/12/01 03:57:04;;;;;;;25.87;16.50;;;8.40;99.50;;;;;;10353078;28;20240;-92
2022/12/01 04:02:07;;;;;;;21.17;12.57;;;8.30;96.90;;;;;;10313176;28;20244;-92
2022/12/01 04:07:12;;;;;;;18.17;10.97;;;8.00;98.90;;;;;;10313241;28;20240;-94
2022/12/01 04:12:29;;;;;;;19.07;12.30;;;8.60;99.90;;;;;;10330468;28;20201;-92
2022/12/01 04:17:32;;;;;;;18.30;11.97;;;8.80;98.70;;;;;;10325173;28;20254;-92
2022/12/01 04:22:35;;;;;;;23.07;13.20;;;8.40;99.90;;;;;;10332658;28;20197;-92
2022/12/01 04:27:38;;;;;;;21.73;15.97;;;8.00;99.90;;;;;;10331139;28;20727;-91
2022/12/01 04:32:42;;;;;;;20.70;13.37;;;8.40;97.30;;;;;;10368346;28;20267;-91
2022/12/01 04:37:44;;;;;;;26.93;16.83;;;8.20;98.80;;;;;;10351197;28;20260;-91
2022/12/01 04:42:47;;;;;;;49.53;24.77;;;8.20;99.90;;;;;;10349689;28;20200;-92
2022/12/01 04:47:51;;;;;;;44.20;26.47;;;8.30;99.30;;;;;;10320301;28;20209;-93
2022/12/01 04:52:54;;;;;;;30.90;19.20;;;8.50;99.90;;;;;;10356279;28;20771;-92
2022/12/01 04:57:57;;;;;;;23.43;14.30;;;8.60;98.30;;;;;;10328205;28;20363;-92
2022/12/01 05:02:59;;;;;;;25.20;15.07;;;8.40;98.50;;;;;;10367663;28;20223;-93
2022/12/01 05:08:02;;;;;;;24.00;15.90;;;8.60;98.90;;;;;;10337530;28;20299;-91
2022/12/01 05:13:05;;;;;;;30.70;17.73;;;8.20;97.20;;;;;;10333263;28;20228;-91
2022/12/01 05:18:07;;;;;;;21.47;14.13;;;7.80;94.90;;;;;;10354064;28;20317;-92
2022/12/01 05:23:10;;;;;;;17.03;11.53;;;7.20;99.90;;;;;;10328813;28;20698;-93
2022/12/01 05:28:18;;;;;;;23.37;14.63;;;7.70;99.90;;;;;;10334839;28;20280;-92
2022/12/01 05:33:22;;;;;;;16.27;10.17;;;7.70;99.90;;;;;;10361958;28;20720;-91
2022/12/01 05:38:24;;;;;;;24.53;15.30;;;8.20;99.90;;;;;;10334948;28;20208;-91
2022/12/01 05:43:27;;;;;;;26.93;17.80;;;8.20;99.90;;;;;;10363756;28;20216;-92
2022/12/01 05:48:31;;;;;;;24.20;15.07;;;8.10;98.40;;;;;;10374045;28;20244;-93
2022/12/01 05:53:33;;;;;;;16.83;12.20;;;8.40;99.60;;;;;;10372978;28;20294;-91
2022/12/01 05:58:36;;;;;;;20.13;12.17;;;8.20;99.90;;;;;;10373896;28;20724;-93
2022/12/01 06:03:39;;;;;;;27.43;16.80;;;8.10;99.90;;;;;;10373751;28;20635;-92
2022/12/01 06:08:41;;;;;;;23.87;16.13;;;8.10;97.80;;;;;;10355492;28;20236;-94
2022/12/01 06:13:44;;;;;;;17.00;11.03;;;7.90;99.80;;;;;;10354760;28;20716;-90
2022/12/01 06:18:46;;;;;;;23.07;15.07;;;8.30;99.90;;;;;;10372692;28;20803;-90
2022/12/01 06:23:49;;;;;;;30.20;18.83;;;8.60;97.50;;;;;;10354692;28;20623;-91
2022/12/01 06:28:51;;;;;;;29.90;18.07;;;7.90;96.00;;;;;;10354176;28;20679;-91
2022/12/01 06:33:53;;;;;;;33.10;20.17;;;7.90;98.40;;;;;;10354580;28;20232;-90
2022/12/01 06:38:56;;;;;;;18.07;13.40;;;7.20;98.50;;;;;;10338101;28;20293;-90
2022/12/01 06:43:59;;;;;;;18.83;12.80;;;7.20;99.90;;;;;;10352230;28;20302;-91
2022/12/01 06:49:02;;;;;;;18.83;12.80;;;7.40;99.90;;;;;;10324292;28;20702;-90
2022/12/01 06:54:05;;;;;;;18.63;13.50;;;7.60;99.90;;;;;;10341061;28;20319;-89
2022/12/01 06:59:07;;;;;;;17.90;11.67;;;7.80;99.90;;;;;;10358062;28;20305;-91
2022/12/01 07:04:10;;;;;;;22.13;13.27;;;7.50;99.90;;;;;;10355480;28;20205;-93
2022/12/01 07:09:13;;;;;;;28.47;16.77;;;5.10;99.90;;;;;;10372780;28;20201;-89
2022/12/01 07:14:24;;;;;;;31.40;20.30;;;6.80;99.90;;;;;;10370780;28;20261;-89
2022/12/01 07:19:26;;;;;;;31.03;20.80;;;6.40;99.90;;;;;;10361324;28;20309;-95
2022/12/01 07:24:31;;;;;;;30.53;18.27;;;6.80;98.70;;;;;;10351278;28;20199;-92
2022/12/01 07:29:34;;;;;;;54.73;22.70;;;8.00;99.90;;;;;;10328244;28;20213;-91
2022/12/01 07:34:37;;;;;;;37.53;23.97;;;7.10;99.90;;;;;;10323860;28;20593;-92
2022/12/01 07:39:39;;;;;;;44.93;19.97;;;6.30;96.80;;;;;;10352787;28;20657;-91
2022/12/01 07:44:41;;;;;;;38.97;19.27;;;6.50;99.90;;;;;;10351593;28;20302;-91
2022/12/01 07:49:44;;;;;;;41.07;18.97;;;6.00;99.90;;;;;;10335324;28;20783;-92
2022/12/01 07:54:46;;;;;;;32.67;20.27;;;6.60;99.90;;;;;;10352252;28;20945;-92
2022/12/01 07:59:49;;;;;;;40.50;19.70;;;6.30;99.90;;;;;;10350794;28;20290;-91
2022/12/01 08:04:52;;;;;;;32.87;16.80;;;6.70;99.90;;;;;;10351167;28;20208;-92
2022/12/01 08:09:54;;;;;;;28.53;17.80;;;7.40;99.90;;;;;;10351567;28;20212;-92
2022/12/01 08:14:57;;;;;;;33.77;21.30;;;7.50;97.70;;;;;;10368475;28;20309;-92
2022/12/01 08:19:59;;;;;;;37.47;21.10;;;6.60;98.90;;;;;;10368906;28;20252;-92
2022/12/01 08:25:02;;;;;;;32.40;18.67;;;6.50;99.90;;;;;;10349726;28;20741;-92
2022/12/01 08:30:06;;;;;;;38.73;20.10;;;5.90;99.90;;;;;;10367753;28;20235;-92
2022/12/01 08:35:08;;;;;;;30.40;18.03;;;6.00;99.90;;;;;;10368834;28;20208;-91
2022/12/01 08:40:11;;;;;;;38.80;21.93;;;6.40;99.90;;;;;;10350927;28;20302;-91
2022/12/01 08:45:13;;;;;;;32.93;20.80;;;6.00;99.90;;;;;;10350645;28;20690;-92
2022/12/01 08:50:16;;;;;;;32.57;18.67;;;5.00;99.90;;;;;;10323338;28;20208;-92
2022/12/01 08:55:20;;;;;;;27.03;16.50;;;6.20;99.90;;;;;;10327311;28;20319;-92
2022/12/01 09:00:24;;;;;;;36.47;21.67;;;6.00;99.90;;;;;;10354584;28;20334;-92
2022/12/01 09:05:27;;;;;;;33.40;20.47;;;5.60;99.90;;;;;;10334598;28;20201;-92
2022/12/01 09:10:29;;;;;;;31.13;18.67;;;5.60;99.90;;;;;;10358688;28;20200;-91
2022/12/01 09:15:32;;;;;;;26.07;15.50;;;5.30;99.90;;;;;;10352372;28;20554;-91
2022/12/01 09:20:35;;;;;;;35.43;21.73;;;5.40;99.90;;;;;;10318099;28;20229;-91
2022/12/01 09:25:37;;;;;;;32.20;20.47;;;6.00;99.90;;;;;;10335321;28;20304;-92
2022/12/01 09:30:40;;;;;;;29.33;17.90;;;6.40;99.90;;;;;;10355027;28;20240;-91
2022/12/01 09:35:42;;;;;;;31.77;19.37;;;7.10;98.60;;;;;;10375005;28;20228;-91
2022/12/01 09:40:45;;;;;;;25.87;14.03;;;6.30;99.90;;;;;;10356584;28;20224;-92
2022/12/01 09:45:54;;;;;;;35.00;21.30;;;6.70;99.90;;;;;;10356456;28;20451;-91
2022/12/01 09:50:56;;;;;;;19.53;12.00;;;7.10;99.90;;;;;;10357170;28;20240;-91
2022/12/01 09:55:59;;;;;;;23.37;14.63;;;7.40;99.90;;;;;;10353442;28;20330;-91
2022/12/01 10:01:16;;;;;;;25.67;17.03;;;7.80;99.90;;;;;;10330282;28;20268;-91
2022/12/01 10:06:35;;;;;;;23.87;15.83;;;8.10;99.60;;;;;;10334465;28;20282;-91
2022/12/01 10:11:41;;;;;;;27.10;15.73;;;7.80;99.30;;;;;;10355326;28;20654;-91
2022/12/01 10:17:06;;;;;;;25.53;14.13;;;8.20;99.90;;;;;;10355683;28;20693;-91
2022/12/01 10:22:38;;;;;;;34.03;22.10;;;7.50;99.90;;;;;;10355333;28;20646;-91
2022/12/01 10:27:57;;;;;;;20.00;13.13;;;7.50;98.50;;;;;;10354268;28;20236;-91
2022/12/01 10:33:24;;;;;;;19.90;12.47;;;8.00;99.90;;;;;;10354526;28;20204;-92
2022/12/01 10:38:34;;;;;;;20.37;13.37;;;8.70;99.90;;;;;;10350595;28;20635;-91
2022/12/01 10:43:43;;;;;;;22.70;15.47;;;8.20;99.80;;;;;;10341279;28;20649;-92
2022/12/01 10:48:57;;;;;;;29.77;19.03;;;9.00;99.60;;;;;;10324038;28;20240;-91
2022/12/01 10:54:07;;;;;;;25.23;16.10;;;9.40;93.80;;;;;;10346632;28;20260;-91
2022/12/01 10:59:47;;;;;;;28.77;18.60;;;9.60;96.70;;;;;;10332567;28;20292;-92
2022/12/01 11:05:06;;;;;;;30.27;17.83;;;9.40;93.60;;;;;;10205957;29;20304;-92
2022/12/01 11:10:11;;;;;;;24.70;15.43;;;8.60;96.30;;;;;;10206215;29;20676;-91
2022/12/01 11:15:48;;;;;;;33.30;18.50;;;9.10;99.60;;;;;;10213124;29;20254;-92
2022/12/01 11:21:13;;;;;;;32.77;18.93;;;9.20;95.70;;;;;;10178993;29;20270;-92
2022/12/01 11:26:19;;;;;;;25.03;15.57;;;8.70;91.40;;;;;;10215646;29;20779;-92
2022/12/01 11:31:36;;;;;;;30.67;17.63;;;8.70;99.80;;;;;;10166237;29;20263;-91
2022/12/01 11:36:44;;;;;;;32.97;21.90;;;9.00;99.90;;;;;;10167715;28;20235;-92
2022/12/01 11:41:53;;;;;;;24.47;14.90;;;8.50;94.50;;;;;;10349561;28;20651;-92
2022/12/01 11:46:57;;;;;;;21.87;14.63;;;9.00;99.40;;;;;;10350721;28;20271;-92
2022/12/01 11:52:26;;;;;;;28.73;15.97;;;8.80;99.20;;;;;;10338355;28;20317;-91
2022/12/01 11:57:30;;;;;;;29.27;19.47;;;8.20;98.20;;;;;;10305006;28;20225;-91
2022/12/01 12:02:43;;;;;;;28.47;17.83;;;7.90;98.10;;;;;;10301494;28;21180;-91
2022/12/01 12:08:07;;;;;;;38.47;23.17;;;8.70;99.90;;;;;;10297427;28;20288;-91
2022/12/01 12:13:15;;;;;;;31.60;19.57;;;8.30;97.50;;;;;;10310928;28;20322;-92
2022/12/01 12:18:43;;;;;;;22.40;14.77;;;8.30;98.30;;;;;;10310808;28;20316;-91
2022/12/01 12:24:42;;;;;;;28.53;18.17;;;8.70;99.90;;;;;;10291470;28;20240;-91
2022/12/01 12:30:00;;;;;;;26.43;16.87;;;8.30;96.20;;;;;;10201772;28;20288;-92
2022/12/01 12:35:39;;;;;;;24.63;15.53;;;8.10;98.80;;;;;;10194716;29;20249;-91
2022/12/01 12:40:53;;;;;;;22.10;13.93;;;8.80;99.90;;;;;;10198733;28;20309;-91
2022/12/01 12:46:18;;;;;;;28.50;18.27;;;8.80;99.90;;;;;;10210414;29;20282;-90
2022/12/01 12:51:32;;;;;;;27.90;18.30;;;8.90;96.40;;;;;;10216397;29;20375;-91
2022/12/01 12:56:35;;;;;;;33.60;22.23;;;8.30;98.40;;;;;;10199417;29;20293;-91
2022/12/01 13:01:49;;;;;;;18.53;12.40;;;7.40;99.90;;;;;;10303218;28;20323;-90
2022/12/01 13:07:20;;;;;;;23.13;15.83;;;7.90;99.90;;;;;;10306096;28;20283;-90
2022/12/01 13:12:23;;;;;;;27.33;16.80;;;8.20;99.90;;;;;;10303233;28;20343;-89
2022/12/01 13:17:38;;;;;;;25.63;16.07;;;8.10;99.90;;;;;;10305929;28;20283;-91
2022/12/01 13:22:41;;;;;;;17.77;10.93;;;8.70;99.90;;;;;;10305248;28;20678;-90
2022/12/01 13:27:46;;;;;;;38.13;21.97;;;8.70;99.90;;;;;;10301129;28;20228;-90
2022/12/01 13:32:56;;;;;;;23.67;14.30;;;8.70;98.40;;;;;;10294040;28;20284;-90
2022/12/01 13:38:21;;;;;;;32.30;22.50;;;8.40;99.90;;;;;;10300077;28;20210;-89
2022/12/01 13:43:24;;;;;;;25.17;15.80;;;8.80;99.50;;;;;;10297314;28;20275;-90
2022/12/01 13:48:36;;;;;;;28.43;17.90;;;8.80;99.90;;;;;;10305777;28;20295;-90
2022/12/01 13:54:02;;;;;;;20.23;13.07;;;8.50;99.90;;;;;;10305762;28;20237;-91
2022/12/01 13:59:59;;;;;;;22.10;13.77;;;8.80;99.90;;;;;;10323614;28;20639;-91
2022/12/01 14:05:21;;;;;;;43.73;28.13;;;8.20;99.90;;;;;;10334743;28;20705;-92
2022/12/01 14:10:27;;;;;;;19.43;13.57;;;6.80;99.10;;;;;;10332047;28;21041;-91
2022/12/01 14:15:41;;;;;;;23.70;15.00;;;6.70;99.90;;;;;;10327662;28;20231;-91
2022/12/01 14:20:46;;;;;;;31.10;18.13;;;7.50;99.90;;;;;;10332757;28;20242;-91
2022/12/01 14:26:09;;;;;;;23.07;13.43;;;7.40;99.90;;;;;;10347636;28;20638;-91
2022/12/01 14:31:12;;;;;;;15.47;9.87;;;8.30;99.90;;;;;;10347719;28;20259;-91
2022/12/01 14:36:36;;;;;;;23.53;13.03;;;8.80;99.90;;;;;;10326499;28;20235;-91
2022/12/01 14:47:24;;;;;;;22.63;14.00;;;8.70;99.90;;;;;;10749099;23;20255;-91
2022/12/01 14:52:32;;;;;;;28.80;17.43;;;8.20;99.90;;;;;;10201937;28;20199;-89
2022/12/01 14:57:41;;;;;;;21.60;14.00;;;8.10;99.90;;;;;;10208899;28;20188;-90
2022/12/01 15:02:58;;;;;;;18.47;11.93;;;7.70;99.90;;;;;;10188724;28;20223;-89
2022/12/01 15:08:18;;;;;;;30.93;16.10;;;8.10;99.90;;;;;;10213918;28;20196;-90
2022/12/01 15:13:54;;;;;;;42.50;24.17;;;9.40;99.90;;;;;;10217528;28;20211;-90
2022/12/01 15:18:57;;;;;;;23.63;14.27;;;10.00;98.90;;;;;;10211682;28;20211;-90
2022/12/01 15:24:21;;;;;;;29.47;17.67;;;10.30;99.30;;;;;;10179952;29;20204;-90
2022/12/01 15:29:38;;;;;;;16.83;11.53;;;10.10;98.40;;;;;;10184207;28;20768;-90
2022/12/01 15:34:43;;;;;;;16.47;11.83;;;9.60;95.50;;;;;;10188263;29;20258;-91
2022/12/01 15:39:52;;;;;;;18.53;10.87;;;8.90;94.60;;;;;;10183347;29;20232;-89
2022/12/01 15:44:59;;;;;;;14.20;10.00;;;8.80;98.20;;;;;;10203182;28;20208;-91
2022/12/01 15:50:03;;;;;;;15.67;10.63;;;8.90;99.90;;;;;;10208166;28;20180;-90
2022/12/01 15:55:28;;;;;;;15.93;11.43;;;9.60;97.00;;;;;;10207708;28;20184;-91
2022/12/01 16:00:31;;;;;;;14.40;10.73;;;9.10;94.30;;;;;;10211925;28;20239;-91
2022/12/01 16:05:35;;;;;;;14.40;11.00;;;9.20;95.70;;;;;;10233102;28;20241;-89
2022/12/01 16:10:37;;;;;;;16.67;10.47;;;8.60;97.60;;;;;;10202651;28;20224;-91
2022/12/01 16:15:43;;;;;;;17.50;11.97;;;8.40;99.90;;;;;;10203243;28;20207;-91
2022/12/01 16:20:46;;;;;;;13.10;10.10;;;8.50;94.00;;;;;;10205475;28;20211;-90
2022/12/01 16:25:48;;;;;;;20.40;13.50;;;8.20;96.80;;;;;;10274991;23;20266;-91
2022/12/01 16:30:51;;;;;;;18.13;12.17;;;8.40;95.70;;;;;;10171230;29;20207;-88
2022/12/01 16:35:57;;;;;;;12.73;9.50;;;8.40;99.50;;;;;;10191146;29;20207;-90
2022/12/01 16:41:12;;;;;;;14.40;10.30;;;9.10;99.90;;;;;;10216923;23;20475;-92
2022/12/01 16:46:15;;;;;;;14.10;10.50;;;8.70;99.30;;;;;;10163030;29;20220;-92
2022/12/01 16:51:18;;;;;;;15.53;10.07;;;9.60;97.70;;;;;;10156411;29;20221;-91
2022/12/01 16:56:31;;;;;;;15.80;10.70;;;9.00;98.50;;;;;;10146340;29;20224;-92
2022/12/01 17:01:34;;;;;;;14.87;9.60;;;8.90;93.00;;;;;;10143561;29;20601;-90
2022/12/01 17:06:37;;;;;;;12.73;9.30;;;9.10;98.10;;;;;;10145221;29;20276;-91
2022/12/01 17:11:39;;;;;;;13.77;10.17;;;9.40;99.90;;;;;;10141567;29;20604;-91
2022/12/01 17:16:42;;;;;;;13.80;10.17;;;9.00;95.40;;;;;;10149427;29;20216;-92
2022/12/01 17:21:45;;;;;;;12.13;9.07;;;8.70;95.20;;;;;;10180814;29;20224;-92
2022/12/01 17:26:48;;;;;;;17.10;11.60;;;9.40;97.00;;;;;;10196452;29;20221;-93
2022/12/01 17:31:50;;;;;;;14.73;10.10;;;9.40;86.00;;;;;;10188773;29;20188;-91
2022/12/01 17:36:53;;;;;;;11.70;8.47;;;8.90;93.10;;;;;;10182679;29;20180;-90
2022/12/01 17:41:55;;;;;;;12.23;8.77;;;8.50;99.00;;;;;;10178605;29;20240;-90
2022/12/01 17:46:58;;;;;;;17.63;12.63;;;7.90;97.60;;;;;;10175751;29;20196;-91
2022/12/01 17:52:01;;;;;;;14.13;9.83;;;7.30;98.50;;;;;;10183986;29;20208;-93
2022/12/01 17:57:08;;;;;;;16.17;10.53;;;7.60;93.40;;;;;;10187500;29;20228;-91
2022/12/01 18:02:11;;;;;;;12.37;9.50;;;7.90;98.60;;;;;;10149938;29;20257;-91
2022/12/01 18:07:14;;;;;;;11.13;7.47;;;8.00;99.90;;;;;;10159007;29;20212;-91
2022/12/01 18:12:16;;;;;;;12.53;8.07;;;8.40;99.90;;;;;;10168103;29;20271;-90
2022/12/01 18:17:19;;;;;;;13.60;9.63;;;8.60;99.70;;;;;;10143861;29;20216;-89
2022/12/01 18:22:21;;;;;;;11.93;8.03;;;8.40;97.70;;;;;;10142838;29;20224;-89
2022/12/01 18:27:24;;;;;;;16.70;10.07;;;8.30;99.90;;;;;;10146408;29;20211;-90
2022/12/01 18:32:26;;;;;;;12.37;8.80;;;8.50;98.80;;;;;;10147635;29;20200;-90
2022/12/01 18:37:29;;;;;;;10.90;7.47;;;8.60;99.90;;;;;;10143919;29;20209;-91
2022/12/01 18:42:32;;;;;;;13.33;8.87;;;8.90;99.90;;;;;;10155955;29;20239;-91
2022/12/01 18:47:34;;;;;;;9.03;6.63;;;8.80;97.10;;;;;;10151438;29;20260;-90
2022/12/01 18:52:37;;;;;;;11.17;7.63;;;8.60;99.90;;;;;;9811448;23;9999867;-88
2022/12/01 18:57:39;;;;;;;10.93;7.67;;;8.80;94.80;;;;;;10132546;29;20351;-89
2022/12/01 19:02:42;;;;;;;10.20;7.20;;;8.70;94.70;;;;;;10156325;29;20240;-89
2022/12/01 19:07:44;;;;;;;9.63;7.13;;;8.90;97.40;;;;;;10152320;29;20256;-86
2022/12/01 19:12:47;;;;;;;10.17;8.20;;;8.90;98.60;;;;;;10111479;29;20572;-86
2022/12/01 19:17:50;;;;;;;41.77;26.87;;;8.90;96.40;;;;;;10114080;29;20200;-87
2022/12/01 19:22:52;;;;;;;66.33;46.33;;;8.70;95.40;;;;;;10139404;29;20295;-88
2022/12/01 19:27:55;;;;;;;11.03;7.67;;;8.60;98.00;;;;;;10136514;29;20204;-87
2022/12/01 19:32:58;;;;;;;45.33;36.37;;;8.90;99.90;;;;;;10135954;29;20217;-86
2022/12/01 19:38:00;;;;;;;20.87;16.93;;;8.50;90.00;;;;;;10136892;29;20216;-87
2022/12/01 19:43:04;;;;;;;40.47;33.37;;;7.80;94.50;;;;;;10137473;29;20232;-87
2022/12/01 19:48:07;;;;;;;29.37;24.50;;;7.20;99.70;;;;;;10138934;29;20759;-87
2022/12/01 19:53:09;;;;;;;12.43;10.03;;;7.60;98.30;;;;;;10125656;29;20706;-86
2022/12/01 19:58:12;;;;;;;18.73;14.10;;;8.00;99.00;;;;;;10138214;29;20518;-86
2022/12/01 20:03:14;;;;;;;12.87;8.60;;;8.30;99.90;;;;;;10140116;29;20220;-88
2022/12/01 20:08:17;;;;;;;11.30;8.37;;;8.60;94.90;;;;;;10135628;29;20208;-87
2022/12/01 20:13:19;;;;;;;13.50;9.20;;;8.80;98.90;;;;;;10134728;29;20197;-88
2022/12/01 20:18:21;;;;;;;12.53;10.10;;;9.10;96.20;;;;;;10108988;29;20237;-89
2022/12/01 20:23:30;;;;;;;12.20;8.67;;;9.40;94.70;;;;;;10110567;29;20309;-90
2022/12/01 20:28:49;;;;;;;10.50;7.67;;;8.70;93.40;;;;;;10159069;29;20216;-89
2022/12/01 20:33:54;;;;;;;19.53;12.73;;;7.80;99.50;;;;;;10155234;29;20215;-90
2022/12/01 20:38:57;;;;;;;12.23;7.60;;;8.40;99.90;;;;;;10144743;29;20223;-87
2022/12/01 20:44:01;;;;;;;11.30;8.47;;;8.90;95.80;;;;;;10153942;23;20330;-90
2022/12/01 20:49:08;;;;;;;11.37;8.13;;;9.10;94.00;;;;;;10170910;29;20638;-90
2022/12/01 20:54:13;;;;;;;9.80;6.43;;;8.60;95.80;;;;;;10176093;29;20204;-89
2022/12/01 20:59:33;;;;;;;9.50;6.97;;;8.90;99.80;;;;;;10149949;29;20195;-93
2022/12/01 21:04:36;;;;;;;11.17;8.53;;;9.80;99.40;;;;;;10161271;29;20310;-90
2022/12/01 21:09:39;;;;;;;9.20;6.90;;;9.40;98.10;;;;;;10179341;29;20224;-93
2022/12/01 21:14:46;;;;;;;9.93;7.33;;;9.10;98.60;;;;;;10178577;29;20251;-93
2022/12/01 21:20:00;;;;;;;12.60;9.30;;;9.40;98.60;;;;;;10189794;29;20247;-93
2022/12/01 21:25:14;;;;;;;8.50;6.93;;;9.20;96.70;;;;;;10180028;29;20200;-92
2022/12/01 21:30:24;;;;;;;13.40;8.20;;;9.10;99.30;;;;;;10179001;29;20251;-92
2022/12/01 21:35:27;;;;;;;9.17;7.03;;;8.70;98.50;;;;;;10177462;29;20204;-90
2022/12/01 21:40:30;;;;;;;11.03;7.33;;;8.30;97.60;;;;;;10174824;29;20319;-91
2022/12/01 21:51:22;;;;;;;11.73;8.23;;;8.60;98.60;;;;;;9442405;29;10000646;-90
2022/12/01 21:56:26;;;;;;;15.97;10.37;;;8.50;95.80;;;;;;10158125;29;20669;-89
2022/12/01 22:01:31;;;;;;;11.00;8.40;;;7.90;91.00;;;;;;10178384;29;20211;-89
2022/12/01 22:06:38;;;;;;;13.20;9.43;;;8.00;99.30;;;;;;10172662;29;20235;-93
2022/12/01 22:11:50;;;;;;;13.37;9.23;;;8.30;98.80;;;;;;10174258;29;20235;-91
2022/12/01 22:16:57;;;;;;;12.93;9.17;;;8.60;98.40;;;;;;10170372;29;20294;-90
2022/12/01 22:22:23;;;;;;;10.70;8.13;;;8.80;97.10;;;;;;10156653;29;20328;-92
2022/12/01 22:27:30;;;;;;;12.27;9.50;;;8.80;96.10;;;;;;10172323;29;20234;-90
2022/12/01 22:32:39;;;;;;;16.10;11.10;;;8.40;99.70;;;;;;10177587;29;20288;-89
2022/12/01 22:37:47;;;;;;;12.83;8.73;;;8.70;94.80;;;;;;10182138;29;20271;-90
2022/12/01 22:42:50;;;;;;;12.97;9.43;;;8.70;97.90;;;;;;10173231;29;20258;-91
2022/12/01 22:48:00;;;;;;;17.77;11.00;;;8.40;98.10;;;;;;10170167;29;20268;-90
2022/12/01 22:53:13;;;;;;;8.87;6.73;;;8.40;99.70;;;;;;10179318;29;20246;-90
2022/12/01 22:58:23;;;;;;;14.47;9.43;;;8.20;99.90;;;;;;10164453;29;20238;-89
2022/12/01 23:03:26;;;;;;;14.37;8.73;;;8.40;99.30;;;;;;10141910;29;20335;-90
2022/12/01 23:08:29;;;;;;;15.43;10.33;;;8.40;99.90;;;;;;10155091;29;20243;-89
2022/12/01 23:13:33;;;;;;;14.77;9.20;;;8.80;97.90;;;;;;10171706;29;20243;-89
2022/12/01 23:18:35;;;;;;;12.80;9.33;;;8.50;98.60;;;;;;10169296;29;20235;-88
2022/12/01 23:23:38;;;;;;;14.20;10.13;;;8.90;98.40;;;;;;10171367;29;20645;-88
2022/12/01 23:28:41;;;;;;;15.53;10.23;;;9.00;96.90;;;;;;10170703;29;20274;-89
2022/12/01 23:33:43;;;;;;;14.93;10.27;;;8.70;97.40;;;;;;10169012;29;20243;-89
2022/12/01 23:38:51;;;;;;;12.40;8.40;;;8.30;99.90;;;;;;10170225;29;20259;-90
2022/12/01 23:43:57;;;;;;;11.07;8.10;;;8.70;99.90;;;;;;10153526;29;20263;-90
2022/12/01 23:49:08;;;;;;;21.73;14.17;;;8.70;99.90;;;;;;10168751;29;20263;-90
2022/12/01 23:54:22;;;;;;;21.93;11.73;;;8.60;94.30;;;;;;10168832;29;20283;-90
2022/12/01 23:59:26;;;;;;;15.40;9.20;;;8.30;99.70;;;;;;10168164;29;20227;-90
